sensor_id;sensor_type;location;lat;lon;timestamp;P1;durP1;ratioP1;P2;durP2;ratioP2
22219;SDS011;11279;48.364;10.904;2024-02-14T00:00:33;13.10;;;7.93;;
22219;SDS011;11279;48.364;10.904;2024-02-14T00:01:33;17.40;;;8.47;;
22219;SDS011;11279;48.364;10.904;2024-02-14T00:02:34;14.17;;;7.37;;
22219;SDS011;11279;48.364;10.904;2024-02-14T00:03:35;16.80;;;8.57;;
22219;SDS011;11279;48.364;10.904;2024-02-14T00:04:36;15.40;;;8.27;;
22219;SDS011;11279;48.364;10.904;2024-02-14T00:05:38;17.60;;;8.05;;
22219;SDS011;11279;48.364;10.904;2024-02-14T00:06:40;16.65;;;7.88;;
22219;SDS011;11279;48.364;10.904;2024-02-14T00:07:40;15.43;;;7.77;;
22219;SDS011;11279;48.364;10.904;2024-02-14T00:08:41;16.93;;;8.17;;
22219;SDS011;11279;48.364;10.904;2024-02-14T00:09:41;13.90;;;7.83;;
22219;SDS011;11279;48.364;10.904;2024-02-14T00:10:41;13.27;;;7.10;;
22219;SDS011;11279;48.364;10.904;2024-02-14T00:11:44;13.35;;;7.20;;
22219;SDS011;11279;48.364;10.904;2024-02-14T00:12:44;16.43;;;7.43;;
22219;SDS011;11279;48.364;10.904;2024-02-14T00:13:46;13.45;;;7.22;;
22219;SDS011;11279;48.364;10.904;2024-02-14T00:14:47;19.63;;;7.17;;
22219;SDS011;11279;48.364;10.904;2024-02-14T00:15:47;15.83;;;7.37;;
22219;SDS011;11279;48.364;10.904;2024-02-14T00:16:47;14.73;;;7.37;;
22219;SDS011;11279;48.364;10.904;2024-02-14T00:17:48;14.40;;;7.50;;
22219;SDS011;11279;48.364;10.904;2024-02-14T00:18:48;13.67;;;7.40;;
22219;SDS011;11279;48.364;10.904;2024-02-14T00:19:49;15.80;;;8.10;;
22219;SDS011;11279;48.364;10.904;2024-02-14T00:20:49;15.73;;;7.60;;
22219;SDS011;11279;48.364;10.904;2024-02-14T00:21:50;14.77;;;6.87;;
22219;SDS011;11279;48.364;10.904;2024-02-14T00:22:50;12.63;;;6.87;;
22219;SDS011;11279;48.364;10.904;2024-02-14T00:23:51;20.13;;;7.47;;
22219;SDS011;11279;48.364;10.904;2024-02-14T00:24:51;13.43;;;7.13;;
22219;SDS011;11279;48.364;10.904;2024-02-14T00:25:52;13.53;;;7.10;;
22219;SDS011;11279;48.364;10.904;2024-02-14T00:26:52;16.57;;;7.47;;
22219;SDS011;11279;48.364;10.904;2024-02-14T00:27:53;15.70;;;7.60;;
22219;SDS011;11279;48.364;10.904;2024-02-14T00:28:54;17.23;;;8.00;;
22219;SDS011;11279;48.364;10.904;2024-02-14T00:29:54;14.97;;;7.03;;
22219;SDS011;11279;48.364;10.904;2024-02-14T00:30:56;16.67;;;8.13;;
22219;SDS011;11279;48.364;10.904;2024-02-14T00:31:57;16.33;;;7.80;;
22219;SDS011;11279;48.364;10.904;2024-02-14T00:32:57;12.90;;;7.40;;
22219;SDS011;11279;48.364;10.904;2024-02-14T00:33:58;12.70;;;6.67;;
22219;SDS011;11279;48.364;10.904;2024-02-14T00:34:58;15.57;;;7.17;;
22219;SDS011;11279;48.364;10.904;2024-02-14T00:35:58;16.97;;;7.00;;
22219;SDS011;11279;48.364;10.904;2024-02-14T00:38:00;13.75;;;7.38;;
22219;SDS011;11279;48.364;10.904;2024-02-14T00:39:00;13.80;;;7.43;;
22219;SDS011;11279;48.364;10.904;2024-02-14T00:40:01;13.90;;;7.53;;
22219;SDS011;11279;48.364;10.904;2024-02-14T00:41:01;15.50;;;7.20;;
22219;SDS011;11279;48.364;10.904;2024-02-14T00:42:02;13.27;;;7.03;;
22219;SDS011;11279;48.364;10.904;2024-02-14T00:43:03;12.50;;;6.60;;
22219;SDS011;11279;48.364;10.904;2024-02-14T00:44:03;15.63;;;7.80;;
22219;SDS011;11279;48.364;10.904;2024-02-14T00:45:04;12.80;;;6.87;;
22219;SDS011;11279;48.364;10.904;2024-02-14T00:46:08;13.32;;;7.07;;
22219;SDS011;11279;48.364;10.904;2024-02-14T00:47:09;15.63;;;7.00;;
22219;SDS011;11279;48.364;10.904;2024-02-14T00:48:09;14.30;;;7.07;;
22219;SDS011;11279;48.364;10.904;2024-02-14T00:49:10;14.30;;;7.60;;
22219;SDS011;11279;48.364;10.904;2024-02-14T00:50:11;16.73;;;7.10;;
22219;SDS011;11279;48.364;10.904;2024-02-14T00:51:13;13.20;;;7.13;;
22219;SDS011;11279;48.364;10.904;2024-02-14T00:52:14;14.27;;;7.17;;
22219;SDS011;11279;48.364;10.904;2024-02-14T00:53:16;13.48;;;6.75;;
22219;SDS011;11279;48.364;10.904;2024-02-14T00:54:17;19.63;;;8.03;;
22219;SDS011;11279;48.364;10.904;2024-02-14T00:55:17;16.17;;;7.93;;
22219;SDS011;11279;48.364;10.904;2024-02-14T00:56:18;17.97;;;7.90;;
22219;SDS011;11279;48.364;10.904;2024-02-14T00:57:18;19.20;;;8.07;;
22219;SDS011;11279;48.364;10.904;2024-02-14T00:58:19;22.00;;;8.67;;
22219;SDS011;11279;48.364;10.904;2024-02-14T00:59:19;15.80;;;7.57;;
22219;SDS011;11279;48.364;10.904;2024-02-14T01:00:20;16.70;;;8.17;;
22219;SDS011;11279;48.364;10.904;2024-02-14T01:01:20;14.87;;;7.37;;
22219;SDS011;11279;48.364;10.904;2024-02-14T01:02:21;18.90;;;7.57;;
22219;SDS011;11279;48.364;10.904;2024-02-14T01:03:22;14.57;;;7.43;;
22219;SDS011;11279;48.364;10.904;2024-02-14T01:04:22;20.57;;;8.57;;
22219;SDS011;11279;48.364;10.904;2024-02-14T01:05:23;17.63;;;8.50;;
22219;SDS011;11279;48.364;10.904;2024-02-14T01:06:23;17.42;;;8.10;;
22219;SDS011;11279;48.364;10.904;2024-02-14T01:07:24;17.37;;;7.87;;
22219;SDS011;11279;48.364;10.904;2024-02-14T01:08:25;25.37;;;10.47;;
22219;SDS011;11279;48.364;10.904;2024-02-14T01:09:25;23.63;;;9.83;;
22219;SDS011;11279;48.364;10.904;2024-02-14T01:10:26;28.90;;;12.00;;
22219;SDS011;11279;48.364;10.904;2024-02-14T01:11:27;29.63;;;11.20;;
22219;SDS011;11279;48.364;10.904;2024-02-14T01:12:28;35.88;;;13.77;;
22219;SDS011;11279;48.364;10.904;2024-02-14T01:13:31;23.23;;;9.85;;
22219;SDS011;11279;48.364;10.904;2024-02-14T01:14:32;31.00;;;11.47;;
22219;SDS011;11279;48.364;10.904;2024-02-14T01:15:32;53.13;;;21.50;;
22219;SDS011;11279;48.364;10.904;2024-02-14T01:16:41;48.42;;;18.13;;
22219;SDS011;11279;48.364;10.904;2024-02-14T01:17:45;30.65;;;13.30;;
22219;SDS011;11279;48.364;10.904;2024-02-14T01:18:47;19.63;;;8.57;;
22219;SDS011;11279;48.364;10.904;2024-02-14T01:19:48;33.93;;;14.87;;
22219;SDS011;11279;48.364;10.904;2024-02-14T01:20:48;52.40;;;22.67;;
22219;SDS011;11279;48.364;10.904;2024-02-14T01:21:49;26.53;;;12.00;;
22219;SDS011;11279;48.364;10.904;2024-02-14T01:22:50;29.43;;;13.27;;
22219;SDS011;11279;48.364;10.904;2024-02-14T01:23:50;22.83;;;9.97;;
22219;SDS011;11279;48.364;10.904;2024-02-14T01:24:52;24.48;;;10.65;;
22219;SDS011;11279;48.364;10.904;2024-02-14T01:25:52;26.97;;;11.57;;
22219;SDS011;11279;48.364;10.904;2024-02-14T01:26:54;19.73;;;8.70;;
22219;SDS011;11279;48.364;10.904;2024-02-14T01:27:55;18.70;;;9.00;;
22219;SDS011;11279;48.364;10.904;2024-02-14T01:28:56;19.80;;;8.80;;
22219;SDS011;11279;48.364;10.904;2024-02-14T01:29:56;15.83;;;8.03;;
22219;SDS011;11279;48.364;10.904;2024-02-14T01:30:57;18.00;;;8.55;;
22219;SDS011;11279;48.364;10.904;2024-02-14T01:31:58;13.13;;;7.03;;
22219;SDS011;11279;48.364;10.904;2024-02-14T01:32:58;13.63;;;6.33;;
22219;SDS011;11279;48.364;10.904;2024-02-14T01:34:00;13.07;;;6.85;;
22219;SDS011;11279;48.364;10.904;2024-02-14T01:35:03;14.52;;;6.78;;
22219;SDS011;11279;48.364;10.904;2024-02-14T01:36:04;13.10;;;6.03;;
22219;SDS011;11279;48.364;10.904;2024-02-14T01:37:04;10.03;;;5.60;;
22219;SDS011;11279;48.364;10.904;2024-02-14T01:38:06;12.80;;;6.70;;
22219;SDS011;11279;48.364;10.904;2024-02-14T01:39:07;10.30;;;5.33;;
22219;SDS011;11279;48.364;10.904;2024-02-14T01:40:11;12.18;;;6.03;;
22219;SDS011;11279;48.364;10.904;2024-02-14T01:41:12;13.40;;;5.67;;
22219;SDS011;11279;48.364;10.904;2024-02-14T01:42:13;11.88;;;5.88;;
22219;SDS011;11279;48.364;10.904;2024-02-14T01:43:14;11.68;;;5.50;;
22219;SDS011;11279;48.364;10.904;2024-02-14T01:44:15;14.23;;;5.60;;
22219;SDS011;11279;48.364;10.904;2024-02-14T01:45:16;9.73;;;5.15;;
22219;SDS011;11279;48.364;10.904;2024-02-14T01:46:17;11.20;;;5.30;;
22219;SDS011;11279;48.364;10.904;2024-02-14T01:47:18;10.73;;;5.10;;
22219;SDS011;11279;48.364;10.904;2024-02-14T01:48:19;9.97;;;5.60;;
22219;SDS011;11279;48.364;10.904;2024-02-14T01:49:20;12.20;;;5.60;;
22219;SDS011;11279;48.364;10.904;2024-02-14T01:50:21;12.30;;;5.63;;
22219;SDS011;11279;48.364;10.904;2024-02-14T01:51:28;10.13;;;5.40;;
22219;SDS011;11279;48.364;10.904;2024-02-14T01:52:30;10.95;;;5.10;;
22219;SDS011;11279;48.364;10.904;2024-02-14T01:53:30;11.67;;;5.73;;
22219;SDS011;11279;48.364;10.904;2024-02-14T01:54:31;11.27;;;5.57;;
22219;SDS011;11279;48.364;10.904;2024-02-14T01:55:32;10.67;;;5.07;;
22219;SDS011;11279;48.364;10.904;2024-02-14T01:56:34;10.27;;;5.00;;
22219;SDS011;11279;48.364;10.904;2024-02-14T01:57:34;10.73;;;4.93;;
22219;SDS011;11279;48.364;10.904;2024-02-14T01:58:35;10.23;;;5.27;;
22219;SDS011;11279;48.364;10.904;2024-02-14T01:59:36;10.43;;;5.00;;
22219;SDS011;11279;48.364;10.904;2024-02-14T02:00:37;11.40;;;5.50;;
22219;SDS011;11279;48.364;10.904;2024-02-14T02:01:37;10.80;;;4.93;;
22219;SDS011;11279;48.364;10.904;2024-02-14T02:02:38;11.48;;;5.15;;
22219;SDS011;11279;48.364;10.904;2024-02-14T02:03:39;9.82;;;5.05;;
22219;SDS011;11279;48.364;10.904;2024-02-14T02:04:40;14.53;;;6.10;;
22219;SDS011;11279;48.364;10.904;2024-02-14T02:05:41;8.93;;;5.20;;
22219;SDS011;11279;48.364;10.904;2024-02-14T02:06:42;10.77;;;5.25;;
22219;SDS011;11279;48.364;10.904;2024-02-14T02:07:43;10.20;;;5.03;;
22219;SDS011;11279;48.364;10.904;2024-02-14T02:08:43;12.60;;;5.73;;
22219;SDS011;11279;48.364;10.904;2024-02-14T02:09:44;10.03;;;5.20;;
22219;SDS011;11279;48.364;10.904;2024-02-14T02:10:44;14.17;;;5.30;;
22219;SDS011;11279;48.364;10.904;2024-02-14T02:11:45;12.53;;;5.47;;
22219;SDS011;11279;48.364;10.904;2024-02-14T02:12:49;13.13;;;5.60;;
22219;SDS011;11279;48.364;10.904;2024-02-14T02:13:51;10.77;;;5.43;;
22219;SDS011;11279;48.364;10.904;2024-02-14T02:14:51;10.20;;;5.80;;
22219;SDS011;11279;48.364;10.904;2024-02-14T02:15:54;10.20;;;5.30;;
22219;SDS011;11279;48.364;10.904;2024-02-14T02:16:55;12.35;;;6.18;;
22219;SDS011;11279;48.364;10.904;2024-02-14T02:17:55;11.17;;;5.47;;
22219;SDS011;11279;48.364;10.904;2024-02-14T02:18:56;9.40;;;4.57;;
22219;SDS011;11279;48.364;10.904;2024-02-14T02:19:57;12.18;;;5.25;;
22219;SDS011;11279;48.364;10.904;2024-02-14T02:20:58;11.70;;;5.07;;
22219;SDS011;11279;48.364;10.904;2024-02-14T02:21:58;8.23;;;4.77;;
22219;SDS011;11279;48.364;10.904;2024-02-14T02:22:59;11.23;;;5.20;;
22219;SDS011;11279;48.364;10.904;2024-02-14T02:23:59;11.73;;;5.40;;
22219;SDS011;11279;48.364;10.904;2024-02-14T02:25:01;8.23;;;4.80;;
22219;SDS011;11279;48.364;10.904;2024-02-14T02:26:02;9.95;;;4.63;;
22219;SDS011;11279;48.364;10.904;2024-02-14T02:27:03;11.60;;;5.33;;
22219;SDS011;11279;48.364;10.904;2024-02-14T02:28:04;9.23;;;5.10;;
22219;SDS011;11279;48.364;10.904;2024-02-14T02:29:04;10.87;;;5.17;;
22219;SDS011;11279;48.364;10.904;2024-02-14T02:30:06;11.35;;;4.75;;
22219;SDS011;11279;48.364;10.904;2024-02-14T02:31:08;9.65;;;4.93;;
22219;SDS011;11279;48.364;10.904;2024-02-14T02:32:09;10.18;;;4.88;;
22219;SDS011;11279;48.364;10.904;2024-02-14T02:33:09;8.20;;;4.63;;
22219;SDS011;11279;48.364;10.904;2024-02-14T02:34:10;9.17;;;4.90;;
22219;SDS011;11279;48.364;10.904;2024-02-14T02:35:10;9.73;;;4.50;;
22219;SDS011;11279;48.364;10.904;2024-02-14T02:36:11;8.77;;;4.40;;
22219;SDS011;11279;48.364;10.904;2024-02-14T02:37:12;10.10;;;4.30;;
22219;SDS011;11279;48.364;10.904;2024-02-14T02:38:12;9.97;;;4.80;;
22219;SDS011;11279;48.364;10.904;2024-02-14T02:39:13;9.63;;;4.73;;
22219;SDS011;11279;48.364;10.904;2024-02-14T02:40:14;8.32;;;4.30;;
22219;SDS011;11279;48.364;10.904;2024-02-14T02:41:15;10.50;;;4.43;;
22219;SDS011;11279;48.364;10.904;2024-02-14T02:42:15;11.15;;;4.38;;
22219;SDS011;11279;48.364;10.904;2024-02-14T02:43:18;12.77;;;4.75;;
22219;SDS011;11279;48.364;10.904;2024-02-14T02:44:18;10.50;;;4.63;;
22219;SDS011;11279;48.364;10.904;2024-02-14T02:45:19;8.80;;;4.60;;
22219;SDS011;11279;48.364;10.904;2024-02-14T02:46:19;12.10;;;4.37;;
22219;SDS011;11279;48.364;10.904;2024-02-14T02:47:20;6.83;;;4.50;;
22219;SDS011;11279;48.364;10.904;2024-02-14T02:48:20;10.00;;;4.40;;
22219;SDS011;11279;48.364;10.904;2024-02-14T02:49:23;9.60;;;4.30;;
22219;SDS011;11279;48.364;10.904;2024-02-14T02:50:23;8.73;;;4.43;;
22219;SDS011;11279;48.364;10.904;2024-02-14T02:51:24;9.00;;;4.77;;
22219;SDS011;11279;48.364;10.904;2024-02-14T02:52:24;8.63;;;4.20;;
22219;SDS011;11279;48.364;10.904;2024-02-14T02:53:25;7.30;;;4.50;;
22219;SDS011;11279;48.364;10.904;2024-02-14T02:54:25;8.13;;;4.13;;
22219;SDS011;11279;48.364;10.904;2024-02-14T02:55:26;8.23;;;3.90;;
22219;SDS011;11279;48.364;10.904;2024-02-14T02:56:26;8.70;;;3.70;;
22219;SDS011;11279;48.364;10.904;2024-02-14T02:57:28;8.43;;;4.50;;
22219;SDS011;11279;48.364;10.904;2024-02-14T02:58:29;9.23;;;4.10;;
22219;SDS011;11279;48.364;10.904;2024-02-14T02:59:30;9.97;;;4.07;;
22219;SDS011;11279;48.364;10.904;2024-02-14T03:00:30;9.20;;;3.67;;
22219;SDS011;11279;48.364;10.904;2024-02-14T03:01:39;7.73;;;3.93;;
22219;SDS011;11279;48.364;10.904;2024-02-14T03:02:40;7.57;;;3.90;;
22219;SDS011;11279;48.364;10.904;2024-02-14T03:03:44;9.25;;;4.18;;
22219;SDS011;11279;48.364;10.904;2024-02-14T03:04:44;6.80;;;3.80;;
22219;SDS011;11279;48.364;10.904;2024-02-14T03:05:45;9.27;;;4.07;;
22219;SDS011;11279;48.364;10.904;2024-02-14T03:06:46;10.60;;;3.90;;
22219;SDS011;11279;48.364;10.904;2024-02-14T03:07:46;9.20;;;4.13;;
22219;SDS011;11279;48.364;10.904;2024-02-14T03:08:48;10.98;;;3.97;;
22219;SDS011;11279;48.364;10.904;2024-02-14T03:09:49;8.83;;;4.13;;
22219;SDS011;11279;48.364;10.904;2024-02-14T03:10:49;8.67;;;4.10;;
22219;SDS011;11279;48.364;10.904;2024-02-14T03:11:50;8.17;;;4.13;;
22219;SDS011;11279;48.364;10.904;2024-02-14T03:12:50;8.33;;;3.60;;
22219;SDS011;11279;48.364;10.904;2024-02-14T03:13:51;6.40;;;3.60;;
22219;SDS011;11279;48.364;10.904;2024-02-14T03:14:51;8.37;;;3.80;;
22219;SDS011;11279;48.364;10.904;2024-02-14T03:15:52;9.77;;;4.10;;
22219;SDS011;11279;48.364;10.904;2024-02-14T03:16:53;8.83;;;4.00;;
22219;SDS011;11279;48.364;10.904;2024-02-14T03:17:56;7.35;;;3.70;;
22219;SDS011;11279;48.364;10.904;2024-02-14T03:18:56;9.87;;;3.77;;
22219;SDS011;11279;48.364;10.904;2024-02-14T03:19:57;5.83;;;3.50;;
22219;SDS011;11279;48.364;10.904;2024-02-14T03:20:57;9.87;;;4.40;;
22219;SDS011;11279;48.364;10.904;2024-02-14T03:21:57;8.57;;;4.00;;
22219;SDS011;11279;48.364;10.904;2024-02-14T03:22:58;13.53;;;3.93;;
22219;SDS011;11279;48.364;10.904;2024-02-14T03:23:58;9.03;;;3.87;;
22219;SDS011;11279;48.364;10.904;2024-02-14T03:24:59;7.50;;;3.77;;
22219;SDS011;11279;48.364;10.904;2024-02-14T03:25:59;7.67;;;3.77;;
22219;SDS011;11279;48.364;10.904;2024-02-14T03:27:00;8.20;;;3.90;;
22219;SDS011;11279;48.364;10.904;2024-02-14T03:28:00;8.13;;;3.97;;
22219;SDS011;11279;48.364;10.904;2024-02-14T03:29:02;7.83;;;3.80;;
22219;SDS011;11279;48.364;10.904;2024-02-14T03:30:06;9.18;;;3.92;;
22219;SDS011;11279;48.364;10.904;2024-02-14T03:31:07;9.00;;;4.00;;
22219;SDS011;11279;48.364;10.904;2024-02-14T03:32:07;7.83;;;3.70;;
22219;SDS011;11279;48.364;10.904;2024-02-14T03:33:08;10.13;;;3.90;;
22219;SDS011;11279;48.364;10.904;2024-02-14T03:34:09;9.27;;;3.80;;
22219;SDS011;11279;48.364;10.904;2024-02-14T03:35:10;8.68;;;3.60;;
22219;SDS011;11279;48.364;10.904;2024-02-14T03:36:13;7.32;;;3.67;;
22219;SDS011;11279;48.364;10.904;2024-02-14T03:37:13;6.20;;;3.60;;
22219;SDS011;11279;48.364;10.904;2024-02-14T03:38:24;7.18;;;3.50;;
22219;SDS011;11279;48.364;10.904;2024-02-14T03:39:25;8.20;;;3.75;;
22219;SDS011;11279;48.364;10.904;2024-02-14T03:40:26;7.00;;;3.63;;
22219;SDS011;11279;48.364;10.904;2024-02-14T03:41:27;7.47;;;3.30;;
22219;SDS011;11279;48.364;10.904;2024-02-14T03:42:27;9.00;;;3.60;;
22219;SDS011;11279;48.364;10.904;2024-02-14T03:43:28;6.57;;;4.03;;
22219;SDS011;11279;48.364;10.904;2024-02-14T03:44:28;9.57;;;3.53;;
22219;SDS011;11279;48.364;10.904;2024-02-14T03:45:29;6.93;;;3.17;;
22219;SDS011;11279;48.364;10.904;2024-02-14T03:46:29;7.23;;;3.33;;
22219;SDS011;11279;48.364;10.904;2024-02-14T03:47:30;8.83;;;3.77;;
22219;SDS011;11279;48.364;10.904;2024-02-14T03:48:31;9.25;;;3.40;;
22219;SDS011;11279;48.364;10.904;2024-02-14T03:49:31;7.20;;;3.10;;
22219;SDS011;11279;48.364;10.904;2024-02-14T03:50:32;8.97;;;3.27;;
22219;SDS011;11279;48.364;10.904;2024-02-14T03:51:32;8.27;;;3.60;;
22219;SDS011;11279;48.364;10.904;2024-02-14T03:52:33;8.63;;;3.58;;
22219;SDS011;11279;48.364;10.904;2024-02-14T03:53:34;4.83;;;3.07;;
22219;SDS011;11279;48.364;10.904;2024-02-14T03:54:34;5.63;;;3.07;;
22219;SDS011;11279;48.364;10.904;2024-02-14T03:55:35;5.87;;;3.13;;
22219;SDS011;11279;48.364;10.904;2024-02-14T03:56:36;10.18;;;3.55;;
22219;SDS011;11279;48.364;10.904;2024-02-14T03:57:37;5.93;;;2.85;;
22219;SDS011;11279;48.364;10.904;2024-02-14T03:58:39;6.57;;;3.30;;
22219;SDS011;11279;48.364;10.904;2024-02-14T03:59:40;7.47;;;3.33;;
22219;SDS011;11279;48.364;10.904;2024-02-14T04:00:40;5.27;;;3.10;;
22219;SDS011;11279;48.364;10.904;2024-02-14T04:01:44;5.70;;;2.90;;
22219;SDS011;11279;48.364;10.904;2024-02-14T04:02:45;6.97;;;2.65;;
22219;SDS011;11279;48.364;10.904;2024-02-14T04:03:47;5.97;;;3.00;;
22219;SDS011;11279;48.364;10.904;2024-02-14T04:04:48;8.23;;;3.35;;
22219;SDS011;11279;48.364;10.904;2024-02-14T04:05:49;5.90;;;2.80;;
22219;SDS011;11279;48.364;10.904;2024-02-14T04:06:49;8.07;;;3.03;;
22219;SDS011;11279;48.364;10.904;2024-02-14T04:07:50;7.87;;;3.10;;
22219;SDS011;11279;48.364;10.904;2024-02-14T04:08:52;6.18;;;2.90;;
22219;SDS011;11279;48.364;10.904;2024-02-14T04:09:52;6.63;;;2.87;;
22219;SDS011;11279;48.364;10.904;2024-02-14T04:10:53;6.93;;;3.23;;
22219;SDS011;11279;48.364;10.904;2024-02-14T04:11:56;7.68;;;3.00;;
22219;SDS011;11279;48.364;10.904;2024-02-14T04:12:56;6.40;;;3.00;;
22219;SDS011;11279;48.364;10.904;2024-02-14T04:13:58;5.57;;;2.72;;
22219;SDS011;11279;48.364;10.904;2024-02-14T04:14:58;7.43;;;2.90;;
22219;SDS011;11279;48.364;10.904;2024-02-14T04:15:59;5.63;;;2.60;;
22219;SDS011;11279;48.364;10.904;2024-02-14T04:16:59;7.57;;;3.43;;
22219;SDS011;11279;48.364;10.904;2024-02-14T04:18:00;7.77;;;2.63;;
22219;SDS011;11279;48.364;10.904;2024-02-14T04:19:02;7.97;;;2.63;;
22219;SDS011;11279;48.364;10.904;2024-02-14T04:20:03;4.77;;;2.73;;
22219;SDS011;11279;48.364;10.904;2024-02-14T04:21:04;6.45;;;3.08;;
22219;SDS011;11279;48.364;10.904;2024-02-14T04:22:07;6.50;;;2.83;;
22219;SDS011;11279;48.364;10.904;2024-02-14T04:23:08;6.80;;;2.93;;
22219;SDS011;11279;48.364;10.904;2024-02-14T04:24:09;5.73;;;2.80;;
22219;SDS011;11279;48.364;10.904;2024-02-14T04:25:09;5.73;;;2.40;;
22219;SDS011;11279;48.364;10.904;2024-02-14T04:26:09;5.00;;;2.40;;
22219;SDS011;11279;48.364;10.904;2024-02-14T04:27:10;4.70;;;2.53;;
22219;SDS011;11279;48.364;10.904;2024-02-14T04:28:10;5.03;;;2.70;;
22219;SDS011;11279;48.364;10.904;2024-02-14T04:29:12;3.80;;;2.42;;
22219;SDS011;11279;48.364;10.904;2024-02-14T04:30:12;6.57;;;2.80;;
22219;SDS011;11279;48.364;10.904;2024-02-14T04:31:13;5.10;;;2.80;;
22219;SDS011;11279;48.364;10.904;2024-02-14T04:32:14;6.43;;;2.73;;
22219;SDS011;11279;48.364;10.904;2024-02-14T04:33:14;6.30;;;2.40;;
22219;SDS011;11279;48.364;10.904;2024-02-14T04:34:15;6.13;;;2.77;;
22219;SDS011;11279;48.364;10.904;2024-02-14T04:35:15;6.47;;;2.60;;
22219;SDS011;11279;48.364;10.904;2024-02-14T04:36:16;6.63;;;2.70;;
22219;SDS011;11279;48.364;10.904;2024-02-14T04:37:16;3.60;;;2.40;;
22219;SDS011;11279;48.364;10.904;2024-02-14T04:38:18;4.13;;;2.70;;
22219;SDS011;11279;48.364;10.904;2024-02-14T04:39:19;5.35;;;2.60;;
22219;SDS011;11279;48.364;10.904;2024-02-14T04:40:20;5.47;;;2.60;;
22219;SDS011;11279;48.364;10.904;2024-02-14T04:41:20;7.77;;;2.33;;
22219;SDS011;11279;48.364;10.904;2024-02-14T04:42:21;8.47;;;2.70;;
22219;SDS011;11279;48.364;10.904;2024-02-14T04:43:21;4.40;;;2.80;;
22219;SDS011;11279;48.364;10.904;2024-02-14T04:44:22;4.60;;;2.30;;
22219;SDS011;11279;48.364;10.904;2024-02-14T04:45:22;3.67;;;2.17;;
22219;SDS011;11279;48.364;10.904;2024-02-14T04:46:23;5.93;;;2.57;;
22219;SDS011;11279;48.364;10.904;2024-02-14T04:47:23;7.03;;;2.70;;
22219;SDS011;11279;48.364;10.904;2024-02-14T04:48:24;3.87;;;2.40;;
22219;SDS011;11279;48.364;10.904;2024-02-14T04:49:26;6.65;;;3.00;;
22219;SDS011;11279;48.364;10.904;2024-02-14T04:50:27;5.22;;;2.22;;
22219;SDS011;11279;48.364;10.904;2024-02-14T04:51:27;5.50;;;2.40;;
22219;SDS011;11279;48.364;10.904;2024-02-14T04:52:27;8.00;;;2.57;;
22219;SDS011;11279;48.364;10.904;2024-02-14T04:53:28;6.53;;;2.40;;
22219;SDS011;11279;48.364;10.904;2024-02-14T04:54:28;7.67;;;2.50;;
22219;SDS011;11279;48.364;10.904;2024-02-14T04:55:29;4.80;;;2.40;;
22219;SDS011;11279;48.364;10.904;2024-02-14T04:56:29;7.20;;;2.77;;
22219;SDS011;11279;48.364;10.904;2024-02-14T04:57:30;7.20;;;2.90;;
22219;SDS011;11279;48.364;10.904;2024-02-14T04:58:31;7.43;;;2.78;;
22219;SDS011;11279;48.364;10.904;2024-02-14T04:59:31;3.83;;;2.30;;
22219;SDS011;11279;48.364;10.904;2024-02-14T05:00:32;8.10;;;2.70;;
22219;SDS011;11279;48.364;10.904;2024-02-14T05:01:32;6.50;;;2.80;;
22219;SDS011;11279;48.364;10.904;2024-02-14T05:02:33;7.03;;;2.63;;
22219;SDS011;11279;48.364;10.904;2024-02-14T05:03:33;5.60;;;2.47;;
22219;SDS011;11279;48.364;10.904;2024-02-14T05:04:34;6.87;;;2.33;;
22219;SDS011;11279;48.364;10.904;2024-02-14T05:05:38;4.32;;;2.60;;
22219;SDS011;11279;48.364;10.904;2024-02-14T05:06:38;6.83;;;2.77;;
22219;SDS011;11279;48.364;10.904;2024-02-14T05:07:39;4.60;;;2.47;;
22219;SDS011;11279;48.364;10.904;2024-02-14T05:08:39;6.93;;;2.27;;
22219;SDS011;11279;48.364;10.904;2024-02-14T05:09:40;6.50;;;2.33;;
22219;SDS011;11279;48.364;10.904;2024-02-14T05:10:40;3.70;;;2.10;;
22219;SDS011;11279;48.364;10.904;2024-02-14T05:11:41;4.37;;;2.17;;
22219;SDS011;11279;48.364;10.904;2024-02-14T05:12:41;6.90;;;2.30;;
22219;SDS011;11279;48.364;10.904;2024-02-14T05:13:43;3.78;;;2.50;;
22219;SDS011;11279;48.364;10.904;2024-02-14T05:14:44;6.80;;;2.35;;
22219;SDS011;11279;48.364;10.904;2024-02-14T05:15:44;4.30;;;2.30;;
22219;SDS011;11279;48.364;10.904;2024-02-14T05:16:44;6.93;;;2.73;;
22219;SDS011;11279;48.364;10.904;2024-02-14T05:17:45;5.53;;;2.40;;
22219;SDS011;11279;48.364;10.904;2024-02-14T05:18:46;4.83;;;2.37;;
22219;SDS011;11279;48.364;10.904;2024-02-14T05:19:46;6.60;;;2.10;;
22219;SDS011;11279;48.364;10.904;2024-02-14T05:20:47;9.37;;;2.20;;
22219;SDS011;11279;48.364;10.904;2024-02-14T05:21:47;5.40;;;2.23;;
22219;SDS011;11279;48.364;10.904;2024-02-14T05:22:48;7.23;;;2.70;;
22219;SDS011;11279;48.364;10.904;2024-02-14T05:23:48;4.17;;;2.10;;
22219;SDS011;11279;48.364;10.904;2024-02-14T05:24:50;3.35;;;1.83;;
22219;SDS011;11279;48.364;10.904;2024-02-14T05:25:50;8.87;;;2.97;;
22219;SDS011;11279;48.364;10.904;2024-02-14T05:26:51;3.97;;;2.07;;
22219;SDS011;11279;48.364;10.904;2024-02-14T05:27:52;5.57;;;2.08;;
22219;SDS011;11279;48.364;10.904;2024-02-14T05:28:52;6.50;;;2.50;;
22219;SDS011;11279;48.364;10.904;2024-02-14T05:29:53;4.43;;;2.20;;
22219;SDS011;11279;48.364;10.904;2024-02-14T05:30:53;5.73;;;2.60;;
22219;SDS011;11279;48.364;10.904;2024-02-14T05:31:54;7.57;;;2.30;;
22219;SDS011;11279;48.364;10.904;2024-02-14T05:32:55;2.45;;;2.05;;
22219;SDS011;11279;48.364;10.904;2024-02-14T05:33:55;5.90;;;2.10;;
22219;SDS011;11279;48.364;10.904;2024-02-14T05:34:56;4.80;;;2.30;;
22219;SDS011;11279;48.364;10.904;2024-02-14T05:35:56;6.17;;;2.23;;
22219;SDS011;11279;48.364;10.904;2024-02-14T05:36:57;7.13;;;2.33;;
22219;SDS011;11279;48.364;10.904;2024-02-14T05:37:57;4.43;;;2.30;;
22219;SDS011;11279;48.364;10.904;2024-02-14T05:38:58;3.30;;;2.00;;
22219;SDS011;11279;48.364;10.904;2024-02-14T05:39:58;4.00;;;2.17;;
22219;SDS011;11279;48.364;10.904;2024-02-14T05:40:58;4.90;;;2.13;;
22219;SDS011;11279;48.364;10.904;2024-02-14T05:42:00;4.78;;;2.20;;
22219;SDS011;11279;48.364;10.904;2024-02-14T05:43:01;5.50;;;2.30;;
22219;SDS011;11279;48.364;10.904;2024-02-14T05:44:01;7.10;;;2.37;;
22219;SDS011;11279;48.364;10.904;2024-02-14T05:45:02;5.07;;;2.27;;
22219;SDS011;11279;48.364;10.904;2024-02-14T05:46:03;6.03;;;2.22;;
22219;SDS011;11279;48.364;10.904;2024-02-14T05:47:04;3.93;;;2.30;;
22219;SDS011;11279;48.364;10.904;2024-02-14T05:48:05;4.97;;;2.00;;
22219;SDS011;11279;48.364;10.904;2024-02-14T05:49:06;5.83;;;2.53;;
22219;SDS011;11279;48.364;10.904;2024-02-14T05:50:06;4.60;;;2.27;;
22219;SDS011;11279;48.364;10.904;2024-02-14T05:51:08;5.07;;;2.08;;
22219;SDS011;11279;48.364;10.904;2024-02-14T05:52:09;7.43;;;2.40;;
22219;SDS011;11279;48.364;10.904;2024-02-14T05:53:09;8.33;;;2.30;;
22219;SDS011;11279;48.364;10.904;2024-02-14T05:54:10;7.87;;;2.77;;
22219;SDS011;11279;48.364;10.904;2024-02-14T05:55:10;6.03;;;2.73;;
22219;SDS011;11279;48.364;10.904;2024-02-14T05:56:11;2.90;;;2.10;;
22219;SDS011;11279;48.364;10.904;2024-02-14T05:57:11;6.13;;;2.50;;
22219;SDS011;11279;48.364;10.904;2024-02-14T05:58:11;5.83;;;2.40;;
22219;SDS011;11279;48.364;10.904;2024-02-14T05:59:12;5.93;;;2.47;;
22219;SDS011;11279;48.364;10.904;2024-02-14T06:00:13;6.03;;;2.27;;